Nelson (NZNS)

Aerodrome — Elev 17
New Zealand
S041.17.53.999 E173.13.16.000
Loading chart...

Current Weather

NZNS 270930Z 17003KT 20KM OVC041 18/13 Q1009 RMK AUTO VATSIM USE ONLY

Published 21 minutes ago

Airport Activity

Loading chart...
Loading chart...

Standard ATC Positions

CallsignRadio Name / Freq / Voice Room / TypeFrequencyType
NZCH-T_CTR Christchurch Control
123.700
nzch-t_ctr
123.700
NZNS_TWR Nelson Tower
127.400
nzns_twr
127.400
NZNS_DEL Nelson Delivery
123.300
nzns_del
123.300
NZNS_DEL Nelson Delivery
123.300
nzns_del
123.300
NZNS_ATIS Nelson ATIS
129.100
nzns_atis
129.100
UNICOM NZZC UNICOM
122.800
unicom_nzzc
122.800

Event ATC Positions

This airport has additional control positions that are designated for use only during major events.
These non-standard positions must not be staffed unless specifically activated by the VATNZ Airspace Director as part of an official VATNZ event.
At all other times, controllers should use the designated Standard ATC Positions.

CallsignRadio Name / Freq / Voice Room / TypeFrequencyType
NZCH-D_CTR Christchurch Director
129.200
nzch-d_ctr
129.200

Charts